Dublin, Ireland
Current Conditions -  °F | °C
As of 12:30 AM on Thursday 27 Nov 2014 (Local Time) from EIDW Reporting Station
Few Clouds Few Clouds  
Wind Chill: 26°   Ceiling: Unl
Heat Index: 32°   Visibility: 6mi
Dew Point: 32°   Wind: 6mph
Humidity: 100%   Direction: 270°W
Pressure: 29.71"   Gusts: NA
Location:  53.33°N, 6.25°W
Report Text: EIDW 270030Z 27005KT 9999 FEW015 M00/M00 Q1006 BECMG 3000
Loading
Personal Weather Stations






























Interactive Weather Map New forecast layout! Learn more

10-Day Weather Forecast

Advertisements
Track Severe Weather on mobile